Manisa, Turkey

9:56 AM EEST on September 03, 2014 (GMT +0300)
Kaklic Air Base | Change Station
CLOSE
Current Station
Airport
Location: Izmir Kaklic,
Elevation: 13 ft
Nearby Weather Stations

Elev 13 ft 38.52 °N, 26.98 °E | Updated 1 hour ago

Scattered Clouds
Scattered Clouds
79 °F
Feels Like 79 °F
N
8
Wind Variable Wind from ESE

Today
High -- | Low -- °F
--% Chance of Precip.
Yesterday
High -- | Low -- °F
Precip. -- in
6:40 AM 7:37 PM
First Quarter, 59% visible
Pressure 29.74 in
Visibility 6.2 miles
Clouds Few 4000 ft
Scattered Clouds 10000 ft
Dew Point 64 °F
Humidity 61%
Rainfall 0.00 in
Snow Depth Not available.
UV 1 out of 12
Pollen Not available.
Air Quality Not available.
Flu Activity Not available.
SPECI LTFA 030532Z 11007KT 9999 FEW040 SCT100 26/18 Q1007 RMK RWY17 13010KT

More Conditions Fewer Conditions

Pressure 29.74 in
Visibility 6.2 miles
Clouds Few 4000 ft
Scattered Clouds 10000 ft
Dew Point 64 °F
Humidity 61%
Rainfall 0.00 in
Snow Depth Not available.
UV 1 out of 12
Pollen Not available.
Air Quality Not available.
Flu Activity Not available.
SPECI LTFA 030532Z 11007KT 9999 FEW040 SCT100 26/18 Q1007 RMK RWY17 13010KT

More Conditions Fewer Conditions

10-Day Weather Forecast

Almanac

Astronomy

Sep. 03, 2014 Rise Set
Actual Time 6:40 AM EEST 7:37 PM EEST
Civil Twilight 6:13 AM EEST 8:04 PM EEST
Nautical Twilight 5:41 AM EEST 8:36 PM EEST
Astronomical Twilight 5:08 AM EEST 9:10 PM EEST
Moon 2:58 PM EEST 12:20 AM EEST
Length of Visible Light 13h 50m
Length of Day
12h 56m
Tomorrow will be 2m 25s shorter.
First Quarter, 59% of the Moon is Illuminated
Today
First Quarter
Sep 8
Full
Sep 15
Last Quarter
Sep 24
New
Oct 1
First Quarter

Yesterday's Extremes

Country Highs Country Lows

Community

WunderPhotos

Upload Photos

1,749,888 photos uploaded!

Nearby

Snow Depth

Not available.

Earthquake Activity

City Distance Mag. Time & Date
No recent earthquake activity has been reported nearby.
Minimum magnitude displayed is 2.5.

Coastal Water Temperatures

Place Temperature
No Stations Reporting

Nearby Weather Stations